sensor_id;sensor_type;location;lat;lon;timestamp;pressure;altitude;pressure_sealevel;temperature;humidity
35676;BME280;21790;42.668;23.298;2023-02-26T00:00:05;93483.13;;;18.91;30.06
35676;BME280;21790;42.668;23.298;2023-02-26T00:02:34;93519.59;;;18.51;30.72
35676;BME280;21790;42.668;23.298;2023-02-26T00:05:02;93472.91;;;18.59;30.15
35676;BME280;21790;42.668;23.298;2023-02-26T00:07:28;93502.75;;;18.44;30.17
35676;BME280;21790;42.668;23.298;2023-02-26T00:09:53;93504.09;;;18.97;29.28
35676;BME280;21790;42.668;23.298;2023-02-26T00:12:19;93493.78;;;19.13;28.86
35676;BME280;21790;42.668;23.298;2023-02-26T00:14:45;93470.22;;;18.54;30.16
35676;BME280;21790;42.668;23.298;2023-02-26T00:19:46;93454.03;;;19.43;28.93
35676;BME280;21790;42.668;23.298;2023-02-26T00:22:11;93485.56;;;19.56;28.70
35676;BME280;21790;42.668;23.298;2023-02-26T00:24:37;93462.34;;;18.52;29.85
35676;BME280;21790;42.668;23.298;2023-02-26T00:27:03;93476.13;;;18.50;30.14
35676;BME280;21790;42.668;23.298;2023-02-26T00:29:28;93458.41;;;17.87;30.08
35676;BME280;21790;42.668;23.298;2023-02-26T00:31:54;93472.81;;;18.38;30.12
35676;BME280;21790;42.668;23.298;2023-02-26T00:34:20;93458.91;;;18.59;30.17
35676;BME280;21790;42.668;23.298;2023-02-26T00:42:16;93461.06;;;18.53;28.55
35676;BME280;21790;42.668;23.298;2023-02-26T00:44:42;93453.25;;;18.93;28.50
35676;BME280;21790;42.668;23.298;2023-02-26T00:50:00;93446.34;;;19.56;28.42
35676;BME280;21790;42.668;23.298;2023-02-26T00:55:06;93472.69;;;18.57;28.94
35676;BME280;21790;42.668;23.298;2023-02-26T00:57:33;93451.22;;;18.94;28.46
35676;BME280;21790;42.668;23.298;2023-02-26T00:59:59;93439.13;;;19.19;28.40
35676;BME280;21790;42.668;23.298;2023-02-26T01:02:24;93458.81;;;18.86;28.84
35676;BME280;21790;42.668;23.298;2023-02-26T01:04:50;93456.13;;;19.21;28.44
35676;BME280;21790;42.668;23.298;2023-02-26T01:07:20;93419.59;;;19.55;28.02
35676;BME280;21790;42.668;23.298;2023-02-26T01:09:46;93439.09;;;19.40;28.18
35676;BME280;21790;42.668;23.298;2023-02-26T01:12:12;93447.50;;;19.40;27.89
35676;BME280;21790;42.668;23.298;2023-02-26T01:14:38;93406.91;;;18.30;28.45
35676;BME280;21790;42.668;23.298;2023-02-26T01:17:18;93436.34;;;18.78;28.25
35676;BME280;21790;42.668;23.298;2023-02-26T01:25:23;93404.00;;;18.69;28.53
35676;BME280;21790;42.668;23.298;2023-02-26T01:27:50;93412.03;;;18.94;28.54
35676;BME280;21790;42.668;23.298;2023-02-26T01:30:16;93399.25;;;19.06;28.08
35676;BME280;21790;42.668;23.298;2023-02-26T01:43:48;93367.44;;;18.96;28.56
35676;BME280;21790;42.668;23.298;2023-02-26T01:46:23;93413.38;;;18.25;29.98
35676;BME280;21790;42.668;23.298;2023-02-26T01:48:53;93413.47;;;18.32;29.46
35676;BME280;21790;42.668;23.298;2023-02-26T01:54:35;93414.84;;;18.39;29.47
35676;BME280;21790;42.668;23.298;2023-02-26T01:57:06;93329.59;;;18.74;28.86
35676;BME280;21790;42.668;23.298;2023-02-26T01:59:33;93358.06;;;18.86;28.43
35676;BME280;21790;42.668;23.298;2023-02-26T02:02:03;93370.28;;;19.24;28.03
35676;BME280;21790;42.668;23.298;2023-02-26T02:04:29;93340.22;;;18.96;28.31
35676;BME280;21790;42.668;23.298;2023-02-26T02:06:55;93368.66;;;19.08;28.28
35676;BME280;21790;42.668;23.298;2023-02-26T02:09:20;93346.66;;;19.12;27.80
35676;BME280;21790;42.668;23.298;2023-02-26T02:12:07;93361.88;;;19.52;27.45
35676;BME280;21790;42.668;23.298;2023-02-26T02:14:45;93350.72;;;19.03;27.50
35676;BME280;21790;42.668;23.298;2023-02-26T02:34:10;93328.56;;;19.13;27.01
35676;BME280;21790;42.668;23.298;2023-02-26T02:36:50;93349.22;;;19.02;27.04
35676;BME280;21790;42.668;23.298;2023-02-26T02:39:45;93340.66;;;19.36;26.95
35676;BME280;21790;42.668;23.298;2023-02-26T02:44:43;93325.06;;;19.20;27.18
35676;BME280;21790;42.668;23.298;2023-02-26T02:47:11;93346.38;;;18.53;27.94
35676;BME280;21790;42.668;23.298;2023-02-26T02:49:47;93368.69;;;19.15;27.44
35676;BME280;21790;42.668;23.298;2023-02-26T02:52:21;93359.38;;;19.13;27.17
35676;BME280;21790;42.668;23.298;2023-02-26T02:54:59;93395.72;;;18.30;27.50
35676;BME280;21790;42.668;23.298;2023-02-26T02:57:39;93406.59;;;17.86;28.25
35676;BME280;21790;42.668;23.298;2023-02-26T03:00:10;93371.91;;;18.16;28.21
35676;BME280;21790;42.668;23.298;2023-02-26T03:05:06;93357.00;;;18.34;27.97
35676;BME280;21790;42.668;23.298;2023-02-26T03:07:34;93366.56;;;19.01;27.28
35676;BME280;21790;42.668;23.298;2023-02-26T03:10:02;93378.84;;;18.77;27.53
35676;BME280;21790;42.668;23.298;2023-02-26T03:12:31;93384.66;;;19.28;27.01
35676;BME280;21790;42.668;23.298;2023-02-26T03:14:58;93365.59;;;19.47;26.83
35676;BME280;21790;42.668;23.298;2023-02-26T03:17:33;93405.72;;;19.21;26.72
35676;BME280;21790;42.668;23.298;2023-02-26T03:22:50;93365.28;;;18.60;26.89
35676;BME280;21790;42.668;23.298;2023-02-26T03:25:23;93369.34;;;19.01;26.45
35676;BME280;21790;42.668;23.298;2023-02-26T03:30:43;93385.19;;;19.19;26.41
35676;BME280;21790;42.668;23.298;2023-02-26T03:33:35;93345.66;;;19.30;26.44
35676;BME280;21790;42.668;23.298;2023-02-26T03:36:23;93351.97;;;19.23;26.55
35676;BME280;21790;42.668;23.298;2023-02-26T03:39:03;93378.09;;;19.26;26.53
35676;BME280;21790;42.668;23.298;2023-02-26T03:42:02;93357.09;;;19.11;26.67
35676;BME280;21790;42.668;23.298;2023-02-26T03:47:14;93342.31;;;18.00;27.88
35676;BME280;21790;42.668;23.298;2023-02-26T03:49:56;93365.34;;;18.13;28.03
35676;BME280;21790;42.668;23.298;2023-02-26T03:52:26;93371.25;;;17.89;28.60
35676;BME280;21790;42.668;23.298;2023-02-26T03:57:21;93349.75;;;18.18;28.25
35676;BME280;21790;42.668;23.298;2023-02-26T03:59:47;93364.34;;;18.24;28.24
35676;BME280;21790;42.668;23.298;2023-02-26T04:02:17;93320.84;;;18.77;27.68
35676;BME280;21790;42.668;23.298;2023-02-26T04:04:58;93340.94;;;18.68;28.01
35676;BME280;21790;42.668;23.298;2023-02-26T04:07:25;93353.50;;;18.54;27.80
35676;BME280;21790;42.668;23.298;2023-02-26T04:09:51;93338.38;;;17.82;28.23
35676;BME280;21790;42.668;23.298;2023-02-26T04:12:21;93356.41;;;18.49;27.94
35676;BME280;21790;42.668;23.298;2023-02-26T04:14:49;93341.94;;;18.78;27.43
35676;BME280;21790;42.668;23.298;2023-02-26T04:17:15;93334.97;;;18.72;27.71
35676;BME280;21790;42.668;23.298;2023-02-26T04:19:41;93347.88;;;18.75;27.47
35676;BME280;21790;42.668;23.298;2023-02-26T04:22:08;93327.53;;;18.54;27.61
35676;BME280;21790;42.668;23.298;2023-02-26T04:24:34;93337.78;;;18.72;27.34
35676;BME280;21790;42.668;23.298;2023-02-26T04:26:59;93341.31;;;18.31;27.39
35676;BME280;21790;42.668;23.298;2023-02-26T04:29:25;93330.03;;;18.03;27.81
35676;BME280;21790;42.668;23.298;2023-02-26T04:31:50;93333.53;;;18.37;27.70
35676;BME280;21790;42.668;23.298;2023-02-26T04:34:15;93336.53;;;18.39;27.69
35676;BME280;21790;42.668;23.298;2023-02-26T04:36:41;93314.09;;;18.73;27.23
35676;BME280;21790;42.668;23.298;2023-02-26T04:39:06;93286.03;;;18.86;27.09
35676;BME280;21790;42.668;23.298;2023-02-26T04:41:35;93290.06;;;19.06;26.66
35676;BME280;21790;42.668;23.298;2023-02-26T04:44:01;93295.75;;;19.21;26.29
35676;BME280;21790;42.668;23.298;2023-02-26T04:46:26;93326.66;;;19.08;26.30
35676;BME280;21790;42.668;23.298;2023-02-26T04:48:51;93308.94;;;18.56;26.47
35676;BME280;21790;42.668;23.298;2023-02-26T04:51:17;93295.81;;;18.51;26.51
35676;BME280;21790;42.668;23.298;2023-02-26T04:53:42;93287.28;;;18.36;26.90
35676;BME280;21790;42.668;23.298;2023-02-26T04:56:08;93250.03;;;18.62;26.60
35676;BME280;21790;42.668;23.298;2023-02-26T04:58:34;93318.56;;;17.93;27.20
35676;BME280;21790;42.668;23.298;2023-02-26T05:00:59;93272.84;;;17.70;26.99
35676;BME280;21790;42.668;23.298;2023-02-26T05:03:26;93279.56;;;17.87;27.10
35676;BME280;21790;42.668;23.298;2023-02-26T05:05:51;93283.63;;;18.20;26.88
35676;BME280;21790;42.668;23.298;2023-02-26T05:08:17;93286.91;;;18.32;26.81
35676;BME280;21790;42.668;23.298;2023-02-26T05:10:42;93250.94;;;18.15;27.09
35676;BME280;21790;42.668;23.298;2023-02-26T05:13:07;93266.34;;;18.29;26.35
35676;BME280;21790;42.668;23.298;2023-02-26T05:15:33;93233.63;;;18.17;26.57
35676;BME280;21790;42.668;23.298;2023-02-26T05:17:58;93258.81;;;17.49;27.54
35676;BME280;21790;42.668;23.298;2023-02-26T05:20:24;93266.78;;;17.45;27.40
35676;BME280;21790;42.668;23.298;2023-02-26T05:22:49;93252.28;;;17.80;27.51
35676;BME280;21790;42.668;23.298;2023-02-26T05:25:15;93251.06;;;17.55;27.65
35676;BME280;21790;42.668;23.298;2023-02-26T05:27:41;93255.69;;;17.52;27.67
35676;BME280;21790;42.668;23.298;2023-02-26T05:30:09;93255.09;;;17.33;27.86
35676;BME280;21790;42.668;23.298;2023-02-26T05:32:36;93235.03;;;17.22;27.86
35676;BME280;21790;42.668;23.298;2023-02-26T05:35:02;93254.31;;;17.80;27.39
35676;BME280;21790;42.668;23.298;2023-02-26T05:37:28;93293.63;;;17.48;27.41
35676;BME280;21790;42.668;23.298;2023-02-26T05:39:54;93284.59;;;17.55;27.53
35676;BME280;21790;42.668;23.298;2023-02-26T05:42:19;93201.69;;;17.50;27.38
35676;BME280;21790;42.668;23.298;2023-02-26T05:44:45;93247.19;;;17.58;27.60
35676;BME280;21790;42.668;23.298;2023-02-26T05:47:10;93244.22;;;18.11;27.01
35676;BME280;21790;42.668;23.298;2023-02-26T05:49:36;93230.69;;;17.47;27.66
35676;BME280;21790;42.668;23.298;2023-02-26T05:52:02;93278.16;;;17.47;27.61
35676;BME280;21790;42.668;23.298;2023-02-26T05:54:28;93257.31;;;17.61;27.46
35676;BME280;21790;42.668;23.298;2023-02-26T05:56:54;93215.16;;;17.93;27.15
35676;BME280;21790;42.668;23.298;2023-02-26T05:59:20;93206.91;;;17.87;27.26
35676;BME280;21790;42.668;23.298;2023-02-26T06:01:46;93229.59;;;17.84;27.08
35676;BME280;21790;42.668;23.298;2023-02-26T06:04:11;93238.28;;;17.93;27.85
35676;BME280;21790;42.668;23.298;2023-02-26T06:06:37;93243.47;;;18.38;27.01
35676;BME280;21790;42.668;23.298;2023-02-26T06:09:03;93284.19;;;18.06;26.57
35676;BME280;21790;42.668;23.298;2023-02-26T06:11:29;93260.72;;;17.67;26.92
35676;BME280;21790;42.668;23.298;2023-02-26T06:13:55;93281.63;;;18.08;26.51
35676;BME280;21790;42.668;23.298;2023-02-26T06:16:21;93262.75;;;18.21;26.18
35676;BME280;21790;42.668;23.298;2023-02-26T06:18:47;93241.03;;;18.84;25.84
35676;BME280;21790;42.668;23.298;2023-02-26T06:21:16;93270.72;;;18.38;26.03
35676;BME280;21790;42.668;23.298;2023-02-26T06:23:42;93266.06;;;18.61;25.59
35676;BME280;21790;42.668;23.298;2023-02-26T06:26:08;93262.44;;;18.74;25.44
35676;BME280;21790;42.668;23.298;2023-02-26T06:28:34;93269.47;;;19.32;25.19
35676;BME280;21790;42.668;23.298;2023-02-26T06:30:59;93273.56;;;18.66;25.45
35676;BME280;21790;42.668;23.298;2023-02-26T06:33:25;93279.16;;;19.23;25.05
35676;BME280;21790;42.668;23.298;2023-02-26T06:36:01;93260.34;;;19.82;24.40
35676;BME280;21790;42.668;23.298;2023-02-26T06:38:56;93235.81;;;19.16;25.02
35676;BME280;21790;42.668;23.298;2023-02-26T06:41:25;93243.69;;;18.61;25.28
35676;BME280;21790;42.668;23.298;2023-02-26T06:43:56;93246.63;;;18.35;25.45
35676;BME280;21790;42.668;23.298;2023-02-26T06:46:28;93223.81;;;19.08;25.00
35676;BME280;21790;42.668;23.298;2023-02-26T06:48:58;93243.53;;;18.67;25.32
35676;BME280;21790;42.668;23.298;2023-02-26T07:00:56;93255.44;;;18.88;24.75
35676;BME280;21790;42.668;23.298;2023-02-26T07:03:24;93263.13;;;18.67;24.80
35676;BME280;21790;42.668;23.298;2023-02-26T07:06:01;93215.66;;;19.18;24.48
35676;BME280;21790;42.668;23.298;2023-02-26T07:08:49;93217.66;;;19.53;24.21
35676;BME280;21790;42.668;23.298;2023-02-26T07:11:22;93228.03;;;18.94;24.66
35676;BME280;21790;42.668;23.298;2023-02-26T07:13:47;93192.78;;;18.99;24.59
35676;BME280;21790;42.668;23.298;2023-02-26T07:16:15;93292.47;;;19.02;24.93
35676;BME280;21790;42.668;23.298;2023-02-26T07:18:41;93232.56;;;19.05;24.69
35676;BME280;21790;42.668;23.298;2023-02-26T07:21:25;93218.44;;;19.61;24.19
35676;BME280;21790;42.668;23.298;2023-02-26T07:23:53;93204.09;;;19.73;23.82
35676;BME280;21790;42.668;23.298;2023-02-26T07:26:23;93209.97;;;20.13;23.34
35676;BME280;21790;42.668;23.298;2023-02-26T07:28:50;93249.91;;;19.98;23.64
35676;BME280;21790;42.668;23.298;2023-02-26T07:31:19;93226.41;;;20.46;22.97
35676;BME280;21790;42.668;23.298;2023-02-26T07:34:00;93206.16;;;20.86;22.83
35676;BME280;21790;42.668;23.298;2023-02-26T07:36:39;93237.59;;;20.24;23.93
35676;BME280;21790;42.668;23.298;2023-02-26T07:39:10;93303.22;;;20.13;23.66
35676;BME280;21790;42.668;23.298;2023-02-26T07:41:36;93230.41;;;19.70;23.73
35676;BME280;21790;42.668;23.298;2023-02-26T07:44:09;93242.53;;;20.38;23.97
35676;BME280;21790;42.668;23.298;2023-02-26T07:50:08;93257.28;;;20.77;23.40
35676;BME280;21790;42.668;23.298;2023-02-26T07:52:51;93216.94;;;21.27;22.66
35676;BME280;21790;42.668;23.298;2023-02-26T07:55:37;93248.88;;;20.77;22.92
35676;BME280;21790;42.668;23.298;2023-02-26T07:58:16;93199.13;;;20.47;22.58
35676;BME280;21790;42.668;23.298;2023-02-26T08:00:49;93228.44;;;20.92;22.67
35676;BME280;21790;42.668;23.298;2023-02-26T08:03:19;93232.56;;;20.30;23.01
35676;BME280;21790;42.668;23.298;2023-02-26T08:05:45;93223.81;;;20.49;22.69
35676;BME280;21790;42.668;23.298;2023-02-26T08:08:11;93250.75;;;20.36;22.92
35676;BME280;21790;42.668;23.298;2023-02-26T08:10:42;93208.84;;;20.61;22.60
35676;BME280;21790;42.668;23.298;2023-02-26T08:13:07;93217.22;;;20.84;22.89
35676;BME280;21790;42.668;23.298;2023-02-26T08:15:33;93228.28;;;20.74;22.60
35676;BME280;21790;42.668;23.298;2023-02-26T08:17:59;93211.25;;;20.19;22.99
35676;BME280;21790;42.668;23.298;2023-02-26T08:20:25;93254.25;;;20.98;22.78
35676;BME280;21790;42.668;23.298;2023-02-26T08:23:10;93229.44;;;20.56;22.50
35676;BME280;21790;42.668;23.298;2023-02-26T08:25:48;93245.84;;;20.90;23.01
35676;BME280;21790;42.668;23.298;2023-02-26T08:28:25;93218.53;;;20.75;22.69
35676;BME280;21790;42.668;23.298;2023-02-26T08:30:59;93271.25;;;20.24;23.00
35676;BME280;21790;42.668;23.298;2023-02-26T08:36:47;93257.00;;;21.36;22.32
35676;BME280;21790;42.668;23.298;2023-02-26T08:39:12;93286.25;;;21.33;22.16
35676;BME280;21790;42.668;23.298;2023-02-26T08:41:38;93274.28;;;21.02;22.49
35676;BME280;21790;42.668;23.298;2023-02-26T08:44:04;93259.94;;;21.53;22.26
35676;BME280;21790;42.668;23.298;2023-02-26T08:46:30;93290.03;;;20.97;23.08
35676;BME280;21790;42.668;23.298;2023-02-26T08:48:55;93292.63;;;21.25;22.70
35676;BME280;21790;42.668;23.298;2023-02-26T08:51:21;93288.31;;;21.24;22.70
35676;BME280;21790;42.668;23.298;2023-02-26T08:53:46;93267.19;;;20.93;22.31
35676;BME280;21790;42.668;23.298;2023-02-26T08:56:14;93302.94;;;21.15;22.69
35676;BME280;21790;42.668;23.298;2023-02-26T08:58:39;93285.91;;;20.91;22.56
35676;BME280;21790;42.668;23.298;2023-02-26T09:01:04;93272.84;;;21.56;22.51
35676;BME280;21790;42.668;23.298;2023-02-26T09:03:30;93280.81;;;21.12;22.92
35676;BME280;21790;42.668;23.298;2023-02-26T09:05:56;93341.69;;;21.17;22.16
35676;BME280;21790;42.668;23.298;2023-02-26T09:08:21;93310.44;;;20.98;22.01
35676;BME280;21790;42.668;23.298;2023-02-26T09:10:47;93287.50;;;21.47;21.75
35676;BME280;21790;42.668;23.298;2023-02-26T09:13:13;93322.53;;;21.46;21.48
35676;BME280;21790;42.668;23.298;2023-02-26T09:15:38;93284.88;;;21.49;22.08
35676;BME280;21790;42.668;23.298;2023-02-26T09:18:04;93360.00;;;21.48;21.11
35676;BME280;21790;42.668;23.298;2023-02-26T09:20:30;93356.84;;;21.29;21.69
35676;BME280;21790;42.668;23.298;2023-02-26T09:22:55;93296.34;;;21.83;21.00
35676;BME280;21790;42.668;23.298;2023-02-26T09:25:21;93318.75;;;22.46;20.68
35676;BME280;21790;42.668;23.298;2023-02-26T09:27:46;93356.03;;;22.22;20.72
35676;BME280;21790;42.668;23.298;2023-02-26T09:30:12;93339.28;;;21.84;20.55
35676;BME280;21790;42.668;23.298;2023-02-26T09:32:38;93323.94;;;22.25;20.07
35676;BME280;21790;42.668;23.298;2023-02-26T09:35:04;93333.13;;;22.58;20.43
35676;BME280;21790;42.668;23.298;2023-02-26T09:37:30;93353.66;;;22.43;20.28
35676;BME280;21790;42.668;23.298;2023-02-26T09:39:56;93319.91;;;23.17;19.88
35676;BME280;21790;42.668;23.298;2023-02-26T09:42:31;93314.91;;;23.67;19.33
35676;BME280;21790;42.668;23.298;2023-02-26T09:45:00;93337.25;;;23.31;19.65
35676;BME280;21790;42.668;23.298;2023-02-26T09:47:32;93333.06;;;23.74;19.17
35676;BME280;21790;42.668;23.298;2023-02-26T09:50:27;93374.44;;;23.29;19.86
35676;BME280;21790;42.668;23.298;2023-02-26T09:53:31;93317.97;;;22.78;20.08
35676;BME280;21790;42.668;23.298;2023-02-26T09:56:04;93364.69;;;22.81;19.71
35676;BME280;21790;42.668;23.298;2023-02-26T09:58:38;93347.34;;;22.92;20.24
35676;BME280;21790;42.668;23.298;2023-02-26T10:01:16;93359.31;;;22.03;20.86
35676;BME280;21790;42.668;23.298;2023-02-26T10:09:23;93311.31;;;23.84;20.13
35676;BME280;21790;42.668;23.298;2023-02-26T10:12:13;93290.25;;;23.33;20.24
35676;BME280;21790;42.668;23.298;2023-02-26T10:14:59;93273.50;;;23.87;20.15
35676;BME280;21790;42.668;23.298;2023-02-26T10:20:10;93275.97;;;23.31;20.26
35676;BME280;21790;42.668;23.298;2023-02-26T10:23:00;93285.50;;;23.19;20.63
35676;BME280;21790;42.668;23.298;2023-02-26T10:25:51;93284.63;;;23.33;20.35
35676;BME280;21790;42.668;23.298;2023-02-26T10:28:40;93284.47;;;23.49;20.65
35676;BME280;21790;42.668;23.298;2023-02-26T10:31:31;93288.31;;;22.52;20.36
35676;BME280;21790;42.668;23.298;2023-02-26T10:41:53;93250.56;;;21.90;21.66
35676;BME280;21790;42.668;23.298;2023-02-26T10:44:32;93255.00;;;21.68;22.11
35676;BME280;21790;42.668;23.298;2023-02-26T10:52:15;93229.34;;;22.54;21.60
35676;BME280;21790;42.668;23.298;2023-02-26T10:55:07;93255.16;;;22.68;21.57
35676;BME280;21790;42.668;23.298;2023-02-26T10:57:42;93244.63;;;22.93;21.56
35676;BME280;21790;42.668;23.298;2023-02-26T11:00:15;93218.22;;;23.06;21.59
35676;BME280;21790;42.668;23.298;2023-02-26T11:02:43;93263.34;;;22.98;21.59
35676;BME280;21790;42.668;23.298;2023-02-26T11:05:22;93262.94;;;22.02;21.83
35676;BME280;21790;42.668;23.298;2023-02-26T11:07:51;93254.91;;;22.48;22.06
35676;BME280;21790;42.668;23.298;2023-02-26T11:10:24;93236.91;;;22.93;21.83
35676;BME280;21790;42.668;23.298;2023-02-26T11:12:50;93227.16;;;22.94;21.76
35676;BME280;21790;42.668;23.298;2023-02-26T11:15:20;93230.25;;;22.32;21.93
35676;BME280;21790;42.668;23.298;2023-02-26T11:17:48;93233.84;;;22.57;21.46
35676;BME280;21790;42.668;23.298;2023-02-26T11:22:53;93204.16;;;21.42;22.62
35676;BME280;21790;42.668;23.298;2023-02-26T11:25:23;93229.34;;;21.64;22.74
35676;BME280;21790;42.668;23.298;2023-02-26T11:27:56;93242.66;;;21.64;22.67
35676;BME280;21790;42.668;23.298;2023-02-26T11:30:25;93238.25;;;21.78;22.79
35676;BME280;21790;42.668;23.298;2023-02-26T11:32:53;93242.50;;;20.69;23.97
35676;BME280;21790;42.668;23.298;2023-02-26T11:35:23;93245.88;;;20.60;24.55
35676;BME280;21790;42.668;23.298;2023-02-26T11:37:59;93221.34;;;20.83;24.62
35676;BME280;21790;42.668;23.298;2023-02-26T11:40:38;93219.28;;;20.30;25.01
35676;BME280;21790;42.668;23.298;2023-02-26T11:43:07;93241.75;;;20.53;24.80
35676;BME280;21790;42.668;23.298;2023-02-26T11:45:39;93256.19;;;20.34;25.19
35676;BME280;21790;42.668;23.298;2023-02-26T11:48:11;93246.41;;;20.96;24.49
35676;BME280;21790;42.668;23.298;2023-02-26T11:50:44;93289.81;;;20.95;24.79
35676;BME280;21790;42.668;23.298;2023-02-26T11:53:25;93261.91;;;21.12;24.31
35676;BME280;21790;42.668;23.298;2023-02-26T11:55:59;93270.59;;;20.54;24.94
35676;BME280;21790;42.668;23.298;2023-02-26T11:58:29;93313.25;;;20.75;24.90
35676;BME280;21790;42.668;23.298;2023-02-26T12:01:00;93299.94;;;20.53;25.29
35676;BME280;21790;42.668;23.298;2023-02-26T12:03:28;93321.22;;;21.39;24.27
35676;BME280;21790;42.668;23.298;2023-02-26T12:05:57;93335.69;;;21.98;23.52
35676;BME280;21790;42.668;23.298;2023-02-26T12:08:26;93336.22;;;22.37;23.46
35676;BME280;21790;42.668;23.298;2023-02-26T12:11:09;93298.69;;;22.67;23.29
35676;BME280;21790;42.668;23.298;2023-02-26T12:22:23;93367.97;;;21.97;24.93
35676;BME280;21790;42.668;23.298;2023-02-26T12:36:30;93359.22;;;22.58;24.73
35676;BME280;21790;42.668;23.298;2023-02-26T12:39:24;93369.59;;;21.30;25.74
35676;BME280;21790;42.668;23.298;2023-02-26T12:51:25;93396.78;;;23.10;23.86
35676;BME280;21790;42.668;23.298;2023-02-26T13:04:52;93406.13;;;22.56;24.30
35676;BME280;21790;42.668;23.298;2023-02-26T13:10:27;93403.94;;;23.11;23.21
35676;BME280;21790;42.668;23.298;2023-02-26T13:21:25;93424.44;;;22.79;25.01
35676;BME280;21790;42.668;23.298;2023-02-26T13:24:14;93400.81;;;23.00;24.56
35676;BME280;21790;42.668;23.298;2023-02-26T13:26:43;93411.22;;;22.89;24.62
35676;BME280;21790;42.668;23.298;2023-02-26T13:29:18;93415.31;;;23.21;24.69
35676;BME280;21790;42.668;23.298;2023-02-26T13:34:38;93390.41;;;23.10;25.07
35676;BME280;21790;42.668;23.298;2023-02-26T13:37:29;93400.88;;;23.17;25.24
35676;BME280;21790;42.668;23.298;2023-02-26T13:43:15;93380.25;;;21.47;26.03
35676;BME280;21790;42.668;23.298;2023-02-26T13:48:47;93348.09;;;22.35;24.99
35676;BME280;21790;42.668;23.298;2023-02-26T13:54:00;93371.88;;;22.42;25.30
35676;BME280;21790;42.668;23.298;2023-02-26T13:59:03;93336.91;;;22.52;25.51
35676;BME280;21790;42.668;23.298;2023-02-26T14:01:34;93365.53;;;22.66;25.19
35676;BME280;21790;42.668;23.298;2023-02-26T14:06:56;93352.38;;;22.69;26.47
35676;BME280;21790;42.668;23.298;2023-02-26T14:19:20;93356.97;;;22.89;24.43
35676;BME280;21790;42.668;23.298;2023-02-26T14:22:33;93370.63;;;23.17;24.12
35676;BME280;21790;42.668;23.298;2023-02-26T14:27:35;93386.56;;;22.98;24.09
35676;BME280;21790;42.668;23.298;2023-02-26T14:33:30;93367.13;;;22.52;24.65
35676;BME280;21790;42.668;23.298;2023-02-26T14:42:45;93388.03;;;22.74;23.36
35676;BME280;21790;42.668;23.298;2023-02-26T14:48:01;93377.41;;;22.57;24.04
35676;BME280;21790;42.668;23.298;2023-02-26T14:59:49;93416.63;;;22.63;23.54
35676;BME280;21790;42.668;23.298;2023-02-26T15:24:09;93468.31;;;21.57;24.72
35676;BME280;21790;42.668;23.298;2023-02-26T15:33:19;93441.47;;;21.86;24.75
35676;BME280;21790;42.668;23.298;2023-02-26T15:35:56;93455.75;;;21.58;25.21
35676;BME280;21790;42.668;23.298;2023-02-26T15:41:55;93471.66;;;21.55;26.48
35676;BME280;21790;42.668;23.298;2023-02-26T15:44:30;93476.00;;;21.26;27.13
35676;BME280;21790;42.668;23.298;2023-02-26T15:50:26;93476.53;;;21.24;26.81
35676;BME280;21790;42.668;23.298;2023-02-26T16:02:37;93497.81;;;20.02;27.90
35676;BME280;21790;42.668;23.298;2023-02-26T16:05:24;93492.63;;;20.14;27.96
35676;BME280;21790;42.668;23.298;2023-02-26T16:07:59;93482.09;;;20.35;27.77
35676;BME280;21790;42.668;23.298;2023-02-26T16:10:55;93490.06;;;20.24;27.93
35676;BME280;21790;42.668;23.298;2023-02-26T16:13:33;93494.38;;;20.61;27.47
35676;BME280;21790;42.668;23.298;2023-02-26T16:16:05;93510.81;;;20.57;27.47
35676;BME280;21790;42.668;23.298;2023-02-26T16:18:35;93503.34;;;20.59;27.20
35676;BME280;21790;42.668;23.298;2023-02-26T16:21:02;93506.25;;;20.10;28.06
35676;BME280;21790;42.668;23.298;2023-02-26T16:23:42;93505.88;;;20.34;27.71
35676;BME280;21790;42.668;23.298;2023-02-26T16:26:14;93511.03;;;20.66;27.29
35676;BME280;21790;42.668;23.298;2023-02-26T16:28:43;93502.91;;;20.40;27.89
35676;BME280;21790;42.668;23.298;2023-02-26T16:31:25;93528.47;;;20.00;28.24
35676;BME280;21790;42.668;23.298;2023-02-26T16:34:04;93509.97;;;20.77;27.30
35676;BME280;21790;42.668;23.298;2023-02-26T16:36:38;93487.66;;;20.71;26.90
35676;BME280;21790;42.668;23.298;2023-02-26T16:41:34;93528.78;;;21.27;26.53
35676;BME280;21790;42.668;23.298;2023-02-26T16:44:03;93512.50;;;21.18;26.64
35676;BME280;21790;42.668;23.298;2023-02-26T16:50:16;93542.81;;;20.25;27.91
35676;BME280;21790;42.668;23.298;2023-02-26T16:53:10;93521.53;;;20.73;27.29
35676;BME280;21790;42.668;23.298;2023-02-26T16:58:14;93530.16;;;20.75;27.43
35676;BME280;21790;42.668;23.298;2023-02-26T17:00:43;93545.06;;;20.27;27.99
35676;BME280;21790;42.668;23.298;2023-02-26T17:03:20;93536.47;;;20.61;27.86
35676;BME280;21790;42.668;23.298;2023-02-26T17:05:57;93555.16;;;21.09;27.22
35676;BME280;21790;42.668;23.298;2023-02-26T17:08:52;93571.34;;;21.32;26.98
35676;BME280;21790;42.668;23.298;2023-02-26T17:18:29;93550.84;;;21.08;26.63
35676;BME280;21790;42.668;23.298;2023-02-26T17:20:56;93547.19;;;21.44;26.95
35676;BME280;21790;42.668;23.298;2023-02-26T17:23:28;93561.63;;;21.63;26.60
35676;BME280;21790;42.668;23.298;2023-02-26T17:25:55;93565.59;;;21.60;26.87
35676;BME280;21790;42.668;23.298;2023-02-26T17:28:31;93542.50;;;21.77;26.96
35676;BME280;21790;42.668;23.298;2023-02-26T17:31:06;93554.13;;;21.58;27.29
35676;BME280;21790;42.668;23.298;2023-02-26T17:33:55;93566.69;;;20.91;28.25
35676;BME280;21790;42.668;23.298;2023-02-26T17:36:25;93567.50;;;20.55;28.12
35676;BME280;21790;42.668;23.298;2023-02-26T17:38:54;93568.00;;;20.46;28.21
35676;BME280;21790;42.668;23.298;2023-02-26T17:41:24;93552.19;;;20.64;27.87